Time;durP1;ratioP1;P1;durP2;ratioP2;P2;SDS_P1;SDS_P2;PMS_P1;PMS_P2;Temp;Humidity;BMP_temperature;BMP_pressure;BME280_temperature;BME280_humidity;BME280_pressure;Samples;Min_cycle;Max_cycle;Signal;HPM_P1;HPM_P2
2022/10/14 00:01:22;;;;;;;16.87;14.57;;;;;;;17.88;64.59;98954.81;6920808;28;20325;-78
2022/10/14 00:04:44;;;;;;;22.23;14.70;;;;;;;17.88;64.67;98965.72;6921875;28;20347;-78
2022/10/14 00:08:08;;;;;;;18.17;13.47;;;;;;;17.89;64.54;98940.09;6920283;28;20242;-78
2022/10/14 00:11:32;;;;;;;24.43;14.00;;;;;;;17.80;63.94;98966.94;6921146;28;20222;-79
2022/10/14 00:14:53;;;;;;;21.17;14.93;;;;;;;17.55;65.06;98958.34;6920811;28;20764;-78
2022/10/14 00:18:15;;;;;;;20.60;14.17;;;;;;;17.98;64.59;98957.72;6919857;28;20371;-78
2022/10/14 00:21:37;;;;;;;21.40;14.17;;;;;;;18.12;64.27;98956.28;6920021;28;20801;-78
2022/10/14 00:25:00;;;;;;;20.60;14.20;;;;;;;18.09;63.91;98957.59;6920772;28;20263;-78
2022/10/14 00:28:22;;;;;;;17.20;13.40;;;;;;;17.99;63.93;98940.25;6920588;28;20205;-79
2022/10/14 00:31:43;;;;;;;19.77;12.90;;;;;;;18.16;63.08;98952.00;6920567;28;20702;-79
2022/10/14 00:35:05;;;;;;;20.50;14.43;;;;;;;17.67;63.89;98958.25;6920112;28;20213;-78
2022/10/14 00:38:27;;;;;;;23.53;14.20;;;;;;;17.69;64.11;98926.94;6920601;28;20228;-79
2022/10/14 00:41:50;;;;;;;15.57;13.73;;;;;;;17.76;64.74;98959.50;6920025;28;20263;-79
2022/10/14 00:45:14;;;;;;;20.03;14.10;;;;;;;18.09;63.68;98937.66;6924252;28;20214;-78
2022/10/14 00:48:35;;;;;;;19.67;13.80;;;;;;;17.61;64.64;98946.44;6919237;28;20295;-78
2022/10/14 00:51:59;;;;;;;18.63;14.17;;;;;;;17.74;64.93;98962.47;6920029;28;20209;-78
2022/10/14 00:55:21;;;;;;;22.67;14.73;;;;;;;17.67;65.22;98956.38;6920040;28;20266;-78
2022/10/14 00:58:44;;;;;;;24.50;15.10;;;;;;;17.86;65.14;98951.50;6918939;28;20284;-78
2022/10/14 01:02:06;;;;;;;18.90;14.17;;;;;;;17.92;64.83;98956.78;6921047;28;20232;-78
2022/10/14 01:05:32;;;;;;;18.07;14.30;;;;;;;17.85;64.84;98956.13;6927800;28;20349;-78
2022/10/14 01:09:00;;;;;;;18.40;14.23;;;;;;;17.93;64.79;98947.50;6918499;28;20225;-79
2022/10/14 01:12:26;;;;;;;18.87;14.50;;;;;;;17.98;64.59;98942.16;6919143;28;20291;-78
2022/10/14 01:15:56;;;;;;;18.50;13.53;;;;;;;17.96;64.38;98930.66;6918842;28;20187;-78
2022/10/14 01:19:46;;;;;;;23.27;15.03;;;;;;;17.92;64.70;98950.50;6918482;28;20733;-79
2022/10/14 01:23:24;;;;;;;18.93;14.07;;;;;;;17.99;64.58;98953.91;6918290;28;20623;-78
2022/10/14 01:27:02;;;;;;;21.83;14.57;;;;;;;17.79;65.67;98942.63;6918412;28;20351;-78
2022/10/14 01:30:25;;;;;;;19.37;13.60;;;;;;;17.91;65.08;98933.31;6918555;28;20280;-79
2022/10/14 01:33:51;;;;;;;16.93;12.83;;;;;;;18.01;64.68;98946.28;6919551;28;20213;-79
2022/10/14 01:37:16;;;;;;;19.60;14.67;;;;;;;18.07;64.54;98935.22;6919445;28;20214;-79
2022/10/14 01:40:41;;;;;;;18.07;12.53;;;;;;;18.30;64.00;98921.34;6919423;28;20708;-79
2022/10/14 01:44:05;;;;;;;17.67;13.07;;;;;;;18.16;64.27;98908.31;6919103;28;20378;-78
2022/10/14 01:47:30;;;;;;;20.30;13.90;;;;;;;18.26;64.14;98913.91;6918367;28;20237;-78
2022/10/14 01:50:53;;;;;;;22.13;12.57;;;;;;;18.31;63.86;98923.03;6918021;28;20363;-78
2022/10/14 01:54:17;;;;;;;18.90;13.70;;;;;;;18.26;63.23;98906.56;6917524;28;20213;-78
2022/10/14 01:57:41;;;;;;;16.40;12.17;;;;;;;18.03;63.76;98911.38;6918834;28;20688;-78
2022/10/14 02:01:03;;;;;;;19.83;13.50;;;;;;;17.95;64.20;98934.47;6918848;28;21014;-78
2022/10/14 02:04:26;;;;;;;26.00;14.87;;;;;;;17.71;64.60;98929.44;6918689;28;20244;-78
2022/10/14 02:07:49;;;;;;;16.77;14.00;;;;;;;17.84;64.80;98929.94;6918840;28;20236;-78
2022/10/14 02:11:13;;;;;;;16.50;13.90;;;;;;;17.26;67.65;98934.88;6918898;28;20317;-79
2022/10/14 02:14:39;;;;;;;16.30;14.30;;;;;;;17.86;65.66;98935.94;6917941;28;20217;-78
2022/10/14 02:18:06;;;;;;;19.67;14.70;;;;;;;17.93;65.28;98927.59;6917400;28;20213;-78
2022/10/14 02:21:30;;;;;;;19.30;14.07;;;;;;;17.94;65.50;98929.25;6921471;28;20930;-78
2022/10/14 02:24:53;;;;;;;19.23;13.50;;;;;;;18.01;65.35;98928.03;6929926;28;20248;-79
2022/10/14 02:28:18;;;;;;;15.77;13.67;;;;;;;18.05;65.28;98934.59;6922523;28;20213;-79
2022/10/14 02:31:42;;;;;;;15.40;13.47;;;;;;;18.28;64.66;98937.16;6917460;28;20256;-79
2022/10/14 02:35:05;;;;;;;16.37;13.07;;;;;;;18.01;64.71;98891.72;6917843;28;20571;-78
2022/10/14 02:38:28;;;;;;;23.90;14.60;;;;;;;18.15;64.21;98920.28;6916759;28;20242;-78
2022/10/14 02:41:50;;;;;;;18.23;13.83;;;;;;;18.23;64.70;98934.34;6916908;28;20630;-78
2022/10/14 02:45:11;;;;;;;20.73;13.60;;;;;;;18.32;64.05;98927.41;6919883;28;20205;-78
2022/10/14 02:48:33;;;;;;;16.20;13.17;;;;;;;18.02;64.62;98905.09;6922093;28;20206;-78
2022/10/14 02:51:54;;;;;;;20.60;13.53;;;;;;;17.40;66.55;98930.78;6923069;28;20292;-79
2022/10/14 02:55:23;;;;;;;19.53;13.07;;;;;;;18.14;64.95;98930.41;6921910;28;20733;-78
2022/10/14 02:58:45;;;;;;;13.60;11.10;;;;;;;17.87;65.20;98904.88;6922952;28;20210;-79
2022/10/14 03:02:07;;;;;;;13.70;10.90;;;;;;;17.96;65.42;98911.56;6923932;28;20222;-79
2022/10/14 03:05:28;;;;;;;15.07;9.97;;;;;;;17.84;65.54;98899.09;6921937;28;20591;-78
2022/10/14 03:08:50;;;;;;;11.60;10.00;;;;;;;17.87;65.73;98914.97;6922133;28;20257;-78
2022/10/14 03:12:13;;;;;;;11.63;9.13;;;;;;;17.46;66.57;98908.00;6923345;28;20210;-79
2022/10/14 03:15:34;;;;;;;12.00;9.50;;;;;;;17.30;67.25;98903.34;6923189;28;20344;-78
2022/10/14 03:18:56;;;;;;;13.80;7.47;;;;;;;17.29;67.74;98892.69;6922835;28;20693;-78
2022/10/14 03:22:17;;;;;;;11.63;8.27;;;;;;;17.73;66.20;98889.09;6923238;28;20263;-78
2022/10/14 03:25:39;;;;;;;12.47;9.60;;;;;;;17.62;66.02;98890.84;6922564;28;20735;-78
2022/10/14 03:29:01;;;;;;;9.40;8.27;;;;;;;17.63;66.57;98881.56;6921482;28;20226;-79
2022/10/14 03:32:23;;;;;;;14.13;9.90;;;;;;;17.68;66.04;98878.13;6922084;28;20544;-78
2022/10/14 03:35:45;;;;;;;11.40;9.17;;;;;;;17.54;66.68;98874.06;6921541;28;20356;-78
2022/10/14 03:39:06;;;;;;;11.03;8.37;;;;;;;17.71;66.44;98851.19;6921065;28;20270;-78
2022/10/14 03:42:28;;;;;;;9.33;6.73;;;;;;;18.26;64.45;98865.59;6922064;28;20217;-78
2022/10/14 03:45:50;;;;;;;11.20;7.27;;;;;;;18.38;63.73;98854.59;6922154;28;20305;-78
2022/10/14 03:49:12;;;;;;;9.47;7.63;;;;;;;18.37;63.25;98839.28;6921259;28;20287;-78
2022/10/14 03:52:34;;;;;;;10.20;7.53;;;;;;;18.54;62.83;98846.34;6921066;28;20271;-78
2022/10/14 03:55:56;;;;;;;11.80;8.80;;;;;;;18.31;63.61;98849.34;6919130;28;20203;-78
2022/10/14 03:59:17;;;;;;;11.00;9.50;;;;;;;18.18;63.83;98848.84;6920789;28;20241;-79
2022/10/14 04:02:40;;;;;;;12.10;9.73;;;;;;;18.14;64.01;98829.41;6924535;28;20304;-78
2022/10/14 04:06:02;;;;;;;14.03;10.17;;;;;;;17.80;64.71;98827.03;6941240;28;20255;-78
2022/10/14 04:09:24;;;;;;;11.73;9.60;;;;;;;18.12;64.46;98826.13;6919726;28;20286;-78
2022/10/14 04:12:45;;;;;;;10.07;8.40;;;;;;;18.08;64.31;98819.53;6921064;28;20206;-78
2022/10/14 04:16:08;;;;;;;10.13;8.20;;;;;;;18.17;63.93;98828.09;6920896;28;20308;-78
2022/10/14 04:19:31;;;;;;;9.83;6.77;;;;;;;18.22;63.51;98811.78;6920373;28;20320;-78
2022/10/14 04:22:52;;;;;;;9.83;8.03;;;;;;;18.30;63.04;98817.63;6921128;28;20561;-79
2022/10/14 04:26:14;;;;;;;9.63;7.50;;;;;;;18.09;63.33;98815.72;6920663;28;20218;-78
2022/10/14 04:29:35;;;;;;;12.40;8.17;;;;;;;18.17;63.17;98807.06;6921254;28;20325;-79
2022/10/14 04:32:57;;;;;;;8.40;7.27;;;;;;;17.99;62.44;98773.84;6926416;28;20209;-78
2022/10/14 04:36:20;;;;;;;24.47;15.40;;;;;;;17.72;63.59;98809.19;6935326;28;20190;-78
2022/10/14 04:39:41;;;;;;;16.33;13.40;;;;;;;17.69;64.30;98800.69;6947023;28;20277;-78
2022/10/14 04:43:06;;;;;;;13.33;10.67;;;;;;;17.64;63.53;98768.69;6947413;28;20680;-78
2022/10/14 04:46:27;;;;;;;12.33;10.27;;;;;;;17.92;63.46;98816.84;6947377;28;20210;-78
2022/10/14 04:49:49;;;;;;;12.90;8.73;;;;;;;17.95;63.18;98800.78;6946707;28;20656;-78
2022/10/14 04:53:12;;;;;;;11.43;9.17;;;;;;;17.75;63.81;98796.97;6943988;28;20208;-78
2022/10/14 04:56:33;;;;;;;9.47;7.70;;;;;;;17.84;63.87;98792.72;6967925;28;20217;-78
2022/10/14 04:59:55;;;;;;;14.67;8.10;;;;;;;17.80;63.53;98786.13;6965361;28;20296;-78
2022/10/14 05:03:16;;;;;;;14.57;7.67;;;;;;;17.76;63.92;98784.97;6946249;28;20302;-78
2022/10/14 05:06:38;;;;;;;13.17;8.10;;;;;;;17.87;63.58;98773.94;6947353;28;20213;-78
2022/10/14 05:10:03;;;;;;;10.40;7.70;;;;;;;18.08;63.14;98769.56;6946169;28;20355;-79
2022/10/14 05:13:24;;;;;;;11.90;7.60;;;;;;;17.98;62.92;98753.91;6946329;28;20184;-79
2022/10/14 05:16:46;;;;;;;11.10;9.37;;;;;;;17.67;63.92;98776.38;6946705;28;20209;-78
2022/10/14 05:20:08;;;;;;;13.47;9.53;;;;;;;17.96;63.33;98766.97;6946012;28;20244;-78
2022/10/14 05:23:30;;;;;;;10.03;7.83;;;;;;;17.90;63.43;98757.06;6946570;28;20212;-78
2022/10/14 05:26:52;;;;;;;10.33;8.63;;;;;;;17.94;63.10;98762.84;6947152;28;20204;-78
2022/10/14 05:30:15;;;;;;;13.97;9.00;;;;;;;17.34;64.61;98743.69;6947235;28;20225;-79
2022/10/14 05:33:36;;;;;;;13.90;9.33;;;;;;;17.70;64.54;98759.50;6949103;28;20573;-78
2022/10/14 05:36:58;;;;;;;9.93;8.93;;;;;;;17.76;64.48;98757.69;6953178;28;20214;-78
2022/10/14 05:40:19;;;;;;;14.37;9.27;;;;;;;17.77;63.95;98748.44;6949687;28;20603;-78
2022/10/14 05:43:42;;;;;;;13.20;9.70;;;;;;;17.95;63.62;98743.50;6951653;28;20283;-78
2022/10/14 05:47:04;;;;;;;12.13;9.70;;;;;;;17.88;63.78;98740.13;6954494;28;20232;-78
2022/10/14 05:50:25;;;;;;;13.30;10.23;;;;;;;18.10;63.44;98740.16;6963216;28;20232;-78
2022/10/14 05:53:47;;;;;;;11.97;10.17;;;;;;;18.18;63.00;98739.69;6955094;28;20285;-78
2022/10/14 05:57:09;;;;;;;14.60;11.37;;;;;;;18.00;63.42;98723.63;6948523;28;20269;-78
2022/10/14 06:00:32;;;;;;;16.67;12.03;;;;;;;17.38;65.62;98744.03;6949159;28;20720;-81
2022/10/14 06:03:53;;;;;;;18.23;13.67;;;;;;;17.14;66.31;98731.66;6949888;28;20289;-78
2022/10/14 06:07:15;;;;;;;16.60;13.67;;;;;;;17.52;65.88;98734.44;6952165;28;20535;-76
2022/10/14 06:10:36;;;;;;;14.93;12.63;;;;;;;17.53;66.05;98741.56;6948193;28;20288;-79
2022/10/14 06:13:58;;;;;;;14.97;12.17;;;;;;;17.53;66.10;98733.38;6947594;28;20312;-79
2022/10/14 06:17:21;;;;;;;15.83;12.20;;;;;;;17.28;65.98;98705.72;6948172;28;20777;-78
2022/10/14 06:20:42;;;;;;;15.83;12.10;;;;;;;17.34;66.23;98702.00;6946415;28;20742;-79
2022/10/14 06:24:04;;;;;;;19.53;12.70;;;;;;;17.29;66.97;98729.16;6947400;28;20252;-78
2022/10/14 06:27:26;;;;;;;13.77;11.57;;;;;;;17.13;66.61;98697.31;6945616;28;20263;-79
2022/10/14 06:30:49;;;;;;;17.53;12.50;;;;;;;17.07;67.73;98731.84;6947474;28;20247;-79
2022/10/14 06:34:12;;;;;;;14.13;10.57;;;;;;;17.55;66.40;98742.13;6942240;28;20247;-79
2022/10/14 06:37:34;;;;;;;12.10;10.30;;;;;;;17.89;65.90;98739.06;6946955;28;20202;-78
2022/10/14 06:40:55;;;;;;;12.10;9.57;;;;;;;17.87;64.93;98749.38;6948328;28;20253;-79
2022/10/14 06:44:17;;;;;;;11.33;10.03;;;;;;;18.05;64.69;98737.34;6943431;28;20297;-78
2022/10/14 06:47:38;;;;;;;10.50;9.47;;;;;;;17.46;66.18;98747.16;6945891;28;20273;-80
2022/10/14 06:51:02;;;;;;;12.83;10.47;;;;;;;18.11;64.68;98747.25;6947633;28;20820;-79
2022/10/14 06:54:23;;;;;;;13.33;9.83;;;;;;;18.59;63.55;98741.81;6946373;28;20216;-78
2022/10/14 06:57:45;;;;;;;13.63;9.03;;;;;;;18.25;62.90;98741.13;6948071;28;20276;-79
2022/10/14 07:01:07;;;;;;;12.20;9.17;;;;;;;18.14;63.83;98736.63;6948262;28;20271;-79
2022/10/14 07:04:29;;;;;;;11.50;9.10;;;;;;;17.79;65.04;98736.19;6948712;28;20287;-78
2022/10/14 07:07:52;;;;;;;14.20;8.70;;;;;;;18.10;64.30;98740.94;6947017;28;20244;-78
2022/10/14 07:11:13;;;;;;;14.70;8.77;;;;;;;17.99;64.08;98741.91;6946154;28;20228;-79
2022/10/14 07:14:35;;;;;;;12.50;9.23;;;;;;;18.15;64.26;98759.28;6947538;28;20230;-79
2022/10/14 07:17:56;;;;;;;10.60;9.57;;;;;;;18.18;63.71;98735.06;6948027;28;20301;-79
2022/10/14 07:21:18;;;;;;;10.63;9.17;;;;;;;18.47;63.80;98741.97;6948194;28;20303;-79
2022/10/14 07:24:41;;;;;;;11.10;8.60;;;;;;;18.72;63.03;98744.13;6947641;28;20210;-79
2022/10/14 07:28:02;;;;;;;15.13;9.47;;;;;;;18.76;61.84;98704.28;6946336;28;20240;-78
2022/10/14 07:31:25;;;;;;;12.57;9.37;;;;;;;18.99;61.76;98729.34;6949552;28;20348;-78
2022/10/14 07:34:46;;;;;;;11.07;8.10;;;;;;;19.04;61.89;98747.72;6950965;28;20341;-79
2022/10/14 07:38:08;;;;;;;11.37;8.23;;;;;;;19.20;61.33;98736.63;6961196;28;20766;-79
2022/10/14 07:41:31;;;;;;;9.90;7.33;;;;;;;19.38;60.85;98735.41;6950676;28;20815;-78
2022/10/14 07:44:53;;;;;;;11.53;7.53;;;;;;;19.12;60.71;98704.31;6951075;28;20209;-79
2022/10/14 07:48:14;;;;;;;11.37;8.17;;;;;;;19.47;60.46;98744.78;6950225;28;20207;-79
2022/10/14 07:51:36;;;;;;;12.37;7.03;;;;;;;19.49;60.76;98745.34;6951598;28;20265;-79
2022/10/14 07:54:58;;;;;;;9.33;7.93;;;;;;;19.57;60.98;98745.66;6950431;28;20211;-79
2022/10/14 07:58:23;;;;;;;9.43;7.70;;;;;;;19.81;60.42;98762.50;6950252;28;20199;-79
2022/10/14 08:01:45;;;;;;;11.57;7.93;;;;;;;19.88;60.61;98757.63;6950612;28;20247;-78
2022/10/14 08:05:07;;;;;;;15.10;8.30;;;;;;;20.00;60.32;98748.13;6924911;28;20291;-79
2022/10/14 08:08:29;;;;;;;9.23;7.20;;;;;;;20.17;59.18;98748.75;6923827;28;20242;-79
2022/10/14 08:11:51;;;;;;;9.03;8.07;;;;;;;20.16;59.58;98746.28;6942489;28;20291;-79
2022/10/14 08:15:14;;;;;;;10.07;7.63;;;;;;;20.22;58.81;98747.97;6951744;28;20230;-79
2022/10/14 08:18:35;;;;;;;8.20;6.30;;;;;;;20.32;58.39;98747.97;6949270;28;20216;-79
2022/10/14 08:21:57;;;;;;;9.37;6.67;;;;;;;20.28;58.13;98738.66;6950002;28;20599;-79
2022/10/14 08:25:18;;;;;;;8.63;6.93;;;;;;;19.66;59.77;98740.53;6948829;28;20207;-79
2022/10/14 08:28:40;;;;;;;10.23;6.50;;;;;;;19.78;59.31;98739.25;6948090;28;20311;-79
2022/10/14 08:32:03;;;;;;;9.97;5.90;;;;;;;19.40;59.82;98716.84;6950128;28;20206;-79
2022/10/14 08:35:25;;;;;;;8.83;6.47;;;;;;;19.99;59.24;98734.69;6949012;28;20572;-79
2022/10/14 08:38:47;;;;;;;11.10;5.80;;;;;;;20.18;58.95;98731.25;6949155;28;20207;-79
2022/10/14 08:42:31;;;;;;;6.97;5.73;;;;;;;20.46;57.72;98714.34;6949774;28;20260;-79
2022/10/14 08:45:56;;;;;;;6.73;5.23;;;;;;;20.65;57.37;98729.19;6950997;28;20233;-79
2022/10/14 08:49:23;;;;;;;9.23;5.23;;;;;;;20.69;57.15;98705.59;6950818;28;20261;-79
2022/10/14 08:52:47;;;;;;;8.03;6.27;;;;;;;20.56;58.00;98683.41;6950518;28;20222;-79
2022/10/14 08:56:10;;;;;;;9.07;6.30;;;;;;;20.71;57.67;98697.97;6950375;28;20210;-79
2022/10/14 08:59:35;;;;;;;9.17;5.70;;;;;;;20.89;57.03;98711.16;6951152;28;20227;-79
2022/10/14 09:02:58;;;;;;;8.87;5.50;;;;;;;21.11;56.65;98721.84;6949355;28;20247;-79
2022/10/14 09:06:25;;;;;;;12.07;6.03;;;;;;;21.20;57.30;98718.28;6960133;28;20269;-79
2022/10/14 09:09:48;;;;;;;7.40;6.40;;;;;;;21.15;56.80;98704.56;6951336;28;20215;-78
2022/10/14 09:13:13;;;;;;;8.83;6.33;;;;;;;21.40;57.01;98713.59;6949665;28;20203;-78
2022/10/14 09:16:36;;;;;;;7.17;4.97;;;;;;;21.52;56.29;98708.63;6942070;28;20278;-79
2022/10/14 09:20:04;;;;;;;7.27;5.83;;;;;;;21.49;56.26;98705.63;6921544;28;20239;-79
2022/10/14 09:23:27;;;;;;;6.53;5.60;;;;;;;20.98;57.17;98690.31;6923051;28;20235;-79
2022/10/14 09:26:51;;;;;;;9.50;5.50;;;;;;;21.35;56.18;98708.09;6921034;28;20358;-80
2022/10/14 09:30:14;;;;;;;6.73;5.30;;;;;;;21.02;55.97;98696.91;6923353;28;20314;-79
2022/10/14 09:33:38;;;;;;;8.13;5.00;;;;;;;21.14;56.82;98700.19;6940238;28;20565;-79
2022/10/14 09:37:15;;;;;;;6.87;5.10;;;;;;;21.27;56.35;98687.84;6948976;28;20218;-79
2022/10/14 09:40:41;;;;;;;5.60;5.10;;;;;;;21.04;56.42;98645.34;6942551;28;20220;-80
2022/10/14 09:44:30;;;;;;;7.20;5.20;;;;;;;21.56;55.34;98697.91;6934590;28;20247;-79
2022/10/14 09:47:55;;;;;;;6.03;5.47;;;;;;;21.34;55.56;98695.50;6934900;28;20269;-79
2022/10/14 09:51:19;;;;;;;7.27;5.17;;;;;;;21.15;56.00;98685.38;6948085;28;20227;-79
2022/10/14 09:54:41;;;;;;;7.17;4.77;;;;;;;21.12;54.61;98642.06;6946559;28;20267;-79
2022/10/14 09:58:07;;;;;;;5.10;4.60;;;;;;;21.68;54.08;98660.88;6947503;28;20329;-79
2022/10/14 10:01:30;;;;;;;7.13;4.27;;;;;;;22.05;54.21;98665.91;6948109;28;20247;-79
2022/10/14 10:04:53;;;;;;;5.33;4.40;;;;;;;22.23;53.03;98659.78;6948246;28;20270;-78
2022/10/14 10:08:17;;;;;;;6.33;4.50;;;;;;;21.78;53.67;98666.31;6947325;28;20210;-80
2022/10/14 10:11:40;;;;;;;5.20;3.93;;;;;;;21.84;53.70;98659.69;6948934;28;20746;-80
2022/10/14 10:15:05;;;;;;;6.50;4.77;;;;;;;21.53;54.43;98660.06;6948115;28;20267;-80
2022/10/14 10:18:27;;;;;;;9.60;6.90;;;;;;;21.71;54.79;98656.75;6943215;28;20214;-78
2022/10/14 10:21:49;;;;;;;7.33;5.17;;;;;;;21.80;54.08;98639.44;6948527;28;20242;-78
2022/10/14 10:25:25;;;;;;;8.53;4.57;;;;;;;22.08;53.59;98646.94;6948590;28;20262;-82
2022/10/14 10:28:48;;;;;;;5.30;3.93;;;;;;;21.82;52.42;98612.50;6947405;28;20606;-79
2022/10/14 10:32:15;;;;;;;6.40;4.30;;;;;;;22.19;52.13;98612.84;6947609;28;20211;-79
2022/10/14 10:36:01;;;;;;;8.93;4.40;;;;;;;22.73;51.45;98629.25;6943121;28;20322;-79
2022/10/14 10:39:26;;;;;;;5.13;4.03;;;;;;;22.11;52.32;98627.19;6945787;28;20282;-79
2022/10/14 10:42:59;;;;;;;5.73;4.13;;;;;;;22.47;52.11;98601.16;6946732;28;20443;-79
2022/10/14 10:46:32;;;;;;;4.30;3.90;;;;;;;22.71;51.60;98610.28;6947725;28;20305;-79
2022/10/14 10:50:12;;;;;;;4.53;3.93;;;;;;;22.80;52.13;98594.00;6946593;28;20304;-79
2022/10/14 10:53:44;;;;;;;6.77;4.67;;;;;;;22.93;51.58;98601.56;6950589;28;20371;-79
2022/10/14 10:57:10;;;;;;;8.30;5.07;;;;;;;22.81;51.89;98598.38;6946206;28;20203;-80
2022/10/14 11:00:35;;;;;;;7.07;4.20;;;;;;;23.22;50.71;98589.50;6947531;28;20232;-81
2022/10/14 11:04:07;;;;;;;5.57;3.97;;;;;;;23.34;50.25;98587.16;6940249;28;20245;-81
2022/10/14 11:15:34;;;;;;;6.27;3.90;;;;;;;23.66;49.30;98584.56;6922380;28;20208;-81
2022/10/14 11:19:03;;;;;;;4.60;4.00;;;;;;;23.61;49.40;98567.28;6923609;28;20253;-80
2022/10/14 11:22:42;;;;;;;8.03;4.30;;;;;;;22.91;51.01;98551.56;6952590;28;20244;-80
2022/10/14 11:26:11;;;;;;;5.00;3.93;;;;;;;23.62;50.22;98567.00;6951683;28;20224;-80
2022/10/14 11:29:41;;;;;;;9.40;4.23;;;;;;;23.42;50.57;98560.94;6950816;28;20719;-80
2022/10/14 11:33:13;;;;;;;6.87;4.03;;;;;;;23.15;50.33;98542.22;6952569;28;20194;-81
2022/10/14 11:36:40;;;;;;;5.07;4.00;;;;;;;23.27;50.45;98539.91;6924827;28;20286;-80
2022/10/14 11:40:07;;;;;;;6.23;4.00;;;;;;;23.42;49.48;98536.97;6951468;28;20373;-80
2022/10/14 11:43:38;;;;;;;5.87;4.77;;;;;;;23.32;51.61;98556.38;6950792;28;20296;-80
2022/10/14 11:47:04;;;;;;;14.13;6.80;;;;;;;23.31;52.30;98562.97;6951440;28;20199;-80
2022/10/14 11:50:29;;;;;;;6.87;4.23;;;;;;;23.24;52.12;98561.69;6951040;28;20260;-80
2022/10/14 11:53:58;;;;;;;8.97;4.67;;;;;;;23.04;52.37;98557.19;6949959;28;20341;-81
2022/10/14 11:57:26;;;;;;;6.50;4.50;;;;;;;23.07;51.70;98556.59;6951753;28;20267;-80
2022/10/14 12:01:10;;;;;;;10.37;5.40;;;;;;;22.70;53.90;98556.44;6952233;28;20234;-81
2022/10/14 12:04:35;;;;;;;6.10;4.67;;;;;;;22.77;53.57;98537.66;6954535;28;20203;-80
2022/10/14 12:08:07;;;;;;;7.50;5.27;;;;;;;22.66;53.86;98527.06;6953423;28;20222;-81
2022/10/14 12:11:31;;;;;;;4.40;4.10;;;;;;;23.21;52.11;98541.09;6948225;28;20732;-80
2022/10/14 12:14:56;;;;;;;5.77;4.63;;;;;;;22.92;53.02;98477.03;6954471;28;20208;-80
2022/10/14 12:18:19;;;;;;;5.17;4.00;;;;;;;23.50;51.98;98527.25;6952429;28;20238;-80
2022/10/14 12:21:45;;;;;;;5.20;4.10;;;;;;;23.39;52.21;98529.31;6953573;28;20584;-80
2022/10/14 12:25:12;;;;;;;9.77;4.50;;;;;;;22.55;53.44;98517.28;6953437;28;20201;-80
2022/10/14 12:28:34;;;;;;;5.63;4.00;;;;;;;21.68;54.83;98493.47;6954056;28;20274;-80
2022/10/14 12:32:19;;;;;;;5.77;3.67;;;;;;;22.97;53.53;98504.47;6950908;28;20361;-79
2022/10/14 12:35:58;;;;;;;5.97;3.90;;;;;;;22.83;52.92;98508.22;6955564;28;20219;-80
2022/10/14 12:39:30;;;;;;;4.20;3.80;;;;;;;23.24;52.44;98501.19;6955871;28;20247;-81
2022/10/14 12:43:22;;;;;;;6.77;3.33;;;;;;;23.72;51.08;98488.97;6959926;28;20215;-81
2022/10/14 12:46:44;;;;;;;4.67;3.33;;;;;;;23.43;51.39;98488.28;6967434;28;20193;-80
2022/10/14 12:50:25;;;;;;;8.53;3.50;;;;;;;23.27;52.30;98495.91;6953317;28;20309;-81
2022/10/14 12:53:51;;;;;;;5.57;3.23;;;;;;;23.59;51.25;98487.75;6953100;28;20243;-80
2022/10/14 12:57:23;;;;;;;7.20;2.90;;;;;;;23.61;50.74;98490.22;6953525;28;20191;-81
2022/10/14 13:00:53;;;;;;;4.50;3.10;;;;;;;23.93;50.52;98480.13;6951728;28;20319;-81
2022/10/14 13:04:17;;;;;;;5.00;3.20;;;;;;;23.67;51.17;98481.56;6936093;28;20234;-80
2022/10/14 13:07:42;;;;;;;3.33;2.90;;;;;;;22.53;53.08;98467.28;6924196;28;20253;-80
2022/10/14 13:11:11;;;;;;;3.17;2.87;;;;;;;22.98;52.39;98448.38;6923082;28;20221;-78
2022/10/14 13:14:34;;;;;;;4.63;2.70;;;;;;;23.15;52.04;98476.22;6923104;28;20284;-84
2022/10/14 13:17:55;;;;;;;5.00;3.27;;;;;;;23.39;52.01;98467.94;6923733;28;20351;-80
2022/10/14 13:21:40;;;;;;;3.03;2.50;;;;;;;23.43;50.05;98472.56;6945140;28;20231;-80
2022/10/14 13:25:10;;;;;;;3.17;2.60;;;;;;;23.33;49.97;98478.22;6941880;28;20232;-80
2022/10/14 13:28:36;;;;;;;5.70;3.37;;;;;;;23.36;51.48;98457.56;6949385;28;20191;-80
2022/10/14 13:32:01;;;;;;;4.53;3.13;;;;;;;23.58;50.89;98460.53;6950564;28;20282;-80
2022/10/14 13:35:26;;;;;;;4.50;2.90;;;;;;;23.05;50.54;98448.00;6950914;28;20304;-80
2022/10/14 13:38:54;;;;;;;3.77;2.70;;;;;;;23.23;51.21;98452.75;6927239;28;20294;-80
2022/10/14 13:42:21;;;;;;;3.73;2.83;;;;;;;23.28;51.15;98463.69;6925378;28;20257;-80
2022/10/14 13:45:45;;;;;;;4.50;3.10;;;;;;;23.37;51.59;98472.94;6950998;28;20258;-80
2022/10/14 13:49:09;;;;;;;4.77;2.93;;;;;;;23.17;51.83;98435.50;6945856;28;20291;-80
2022/10/14 13:52:32;;;;;;;2.80;2.57;;;;;;;23.50;51.44;98477.72;6945994;28;20211;-80
2022/10/14 13:55:56;;;;;;;5.93;2.83;;;;;;;23.32;51.15;98440.81;6945024;28;20226;-80
2022/10/14 13:59:23;;;;;;;4.50;2.93;;;;;;;23.36;52.24;98472.09;6947593;28;20231;-80
2022/10/14 14:02:45;;;;;;;3.47;2.80;;;;;;;23.52;51.86;98475.47;6946346;28;20223;-81
2022/10/14 14:06:10;;;;;;;3.87;2.60;;;;;;;23.46;51.43;98474.72;6947676;28;20321;-80
2022/10/14 14:09:33;;;;;;;3.70;2.70;;;;;;;23.58;51.26;98458.59;6944068;28;20229;-80
2022/10/14 14:12:55;;;;;;;2.47;2.27;;;;;;;23.35;51.37;98440.22;6934909;28;20203;-80
2022/10/14 14:16:20;;;;;;;2.50;2.30;;;;;;;23.34;50.40;98435.81;6948366;28;20673;-80
2022/10/14 14:19:45;;;;;;;3.93;2.70;;;;;;;23.50;51.14;98425.41;6948163;28;20329;-81
2022/10/14 14:23:06;;;;;;;5.03;3.03;;;;;;;23.41;51.29;98428.03;6947210;28;20227;-81
2022/10/14 14:26:33;;;;;;;7.47;3.13;;;;;;;23.41;51.60;98416.19;6947540;28;20204;-80
2022/10/14 14:29:55;;;;;;;2.87;2.67;;;;;;;23.24;51.21;98449.72;6946278;28;20258;-80
2022/10/14 14:33:19;;;;;;;2.37;2.17;;;;;;;22.36;54.35;98436.66;6946919;28;20207;-80
2022/10/14 14:36:41;;;;;;;4.70;2.33;;;;;;;22.39;55.16;98449.81;6946958;28;20274;-80
2022/10/14 14:40:05;;;;;;;2.37;2.10;;;;;;;21.35;57.82;98453.03;6940755;28;20235;-79
2022/10/14 14:43:28;;;;;;;3.60;2.30;;;;;;;21.67;57.76;98430.66;6952440;28;20314;-79
2022/10/14 14:46:51;;;;;;;3.50;2.00;;;;;;;21.97;57.40;98446.88;6953013;28;20264;-79
2022/10/14 14:50:16;;;;;;;3.23;2.17;;;;;;;22.19;57.72;98456.28;6952548;28;20360;-79
2022/10/14 14:53:38;;;;;;;2.13;1.97;;;;;;;21.75;57.32;98408.06;6952911;28;20237;-79
2022/10/14 14:57:02;;;;;;;2.80;2.13;;;;;;;22.07;57.62;98446.81;6928588;28;20289;-79
2022/10/14 15:00:24;;;;;;;2.83;2.53;;;;;;;21.84;58.18;98431.88;6942567;28;20219;-78
2022/10/14 15:03:56;;;;;;;3.13;2.17;;;;;;;21.33;59.29;98408.63;6944176;28;20220;-79
2022/10/14 15:07:21;;;;;;;2.70;2.40;;;;;;;21.46;59.99;98429.09;6925758;28;20196;-79
2022/10/14 15:10:47;;;;;;;3.30;2.30;;;;;;;21.69;59.90;98423.78;6927995;28;20277;-78
2022/10/14 15:14:29;;;;;;;3.33;2.60;;;;;;;21.80;58.57;98422.59;6952351;28;20660;-79
2022/10/14 15:18:05;;;;;;;2.97;2.50;;;;;;;22.10;57.79;98427.81;6952174;28;20199;-79
2022/10/14 15:21:27;;;;;;;2.97;2.67;;;;;;;22.15;57.66;98435.19;6953178;28;20230;-79
2022/10/14 15:25:08;;;;;;;5.00;3.00;;;;;;;21.96;58.46;98429.56;6952240;28;20357;-79
2022/10/14 15:28:30;;;;;;;4.10;3.57;;;;;;;22.03;58.83;98437.50;6952450;28;20244;-78
2022/10/14 15:32:05;;;;;;;4.27;3.00;;;;;;;21.96;57.58;98426.84;6952660;28;20740;-78
2022/10/14 15:35:27;;;;;;;3.70;2.93;;;;;;;21.95;58.21;98425.19;6947715;28;20188;-79
2022/10/14 15:38:50;;;;;;;5.87;3.70;;;;;;;21.96;58.56;98404.88;6953437;28;20337;-78
2022/10/14 15:42:13;;;;;;;4.63;3.60;;;;;;;22.03;59.23;98421.03;6950047;28;20223;-79
2022/10/14 15:45:34;;;;;;;3.43;3.13;;;;;;;21.89;58.69;98420.06;6950497;28;20202;-79
2022/10/14 15:48:58;;;;;;;4.03;3.63;;;;;;;21.69;59.65;98404.56;6948747;28;20318;-78
2022/10/14 15:52:19;;;;;;;3.97;3.20;;;;;;;21.80;58.94;98428.09;6951174;28;20227;-79
2022/10/14 15:55:41;;;;;;;7.90;2.60;;;;;;;21.67;58.37;98422.41;6950995;28;20286;-78
2022/10/14 15:59:04;;;;;;;2.23;2.03;;;;;;;21.52;57.73;98422.47;6951634;28;20254;-78
2022/10/14 16:02:29;;;;;;;3.27;2.70;;;;;;;21.59;58.15;98423.78;6950902;28;20230;-78